sensor_id;sensor_type;location;lat;lon;timestamp;P1;durP1;ratioP1;P2;durP2;ratioP2
33987;SDS011;37428;53.580;-1.666;2022-08-06T00:00:44;9.05;;;3.67;;
33987;SDS011;37428;53.580;-1.666;2022-08-06T00:03:49;8.80;;;3.80;;
33987;SDS011;37428;53.580;-1.666;2022-08-06T00:10:18;8.70;;;3.75;;
33987;SDS011;37428;53.580;-1.666;2022-08-06T00:13:29;10.63;;;3.25;;
33987;SDS011;37428;53.580;-1.666;2022-08-06T00:20:34;11.80;;;3.75;;
33987;SDS011;37428;53.580;-1.666;2022-08-06T00:23:40;11.00;;;3.00;;
33987;SDS011;37428;53.580;-1.666;2022-08-06T00:27:07;7.82;;;3.60;;
33987;SDS011;37428;53.580;-1.666;2022-08-06T00:33:46;10.10;;;3.58;;
33987;SDS011;37428;53.580;-1.666;2022-08-06T00:41:11;8.13;;;3.00;;
33987;SDS011;37428;53.580;-1.666;2022-08-06T00:44:35;7.22;;;3.58;;
33987;SDS011;37428;53.580;-1.666;2022-08-06T00:51:49;7.45;;;3.28;;
33987;SDS011;37428;53.580;-1.666;2022-08-06T00:54:53;7.30;;;3.00;;
33987;SDS011;37428;53.580;-1.666;2022-08-06T00:57:59;11.13;;;3.47;;
33987;SDS011;37428;53.580;-1.666;2022-08-06T01:01:17;7.75;;;3.38;;
33987;SDS011;37428;53.580;-1.666;2022-08-06T01:04:43;6.20;;;3.22;;
33987;SDS011;37428;53.580;-1.666;2022-08-06T01:07:49;6.07;;;2.35;;
33987;SDS011;37428;53.580;-1.666;2022-08-06T01:11:15;12.63;;;3.58;;
33987;SDS011;37428;53.580;-1.666;2022-08-06T01:21:50;8.73;;;2.75;;
33987;SDS011;37428;53.580;-1.666;2022-08-06T01:25:07;9.38;;;3.08;;
33987;SDS011;37428;53.580;-1.666;2022-08-06T01:31:55;11.18;;;3.08;;
33987;SDS011;37428;53.580;-1.666;2022-08-06T01:35:07;7.78;;;2.83;;
33987;SDS011;37428;53.580;-1.666;2022-08-06T01:38:30;9.57;;;3.08;;
33987;SDS011;37428;53.580;-1.666;2022-08-06T01:41:52;10.55;;;3.00;;
33987;SDS011;37428;53.580;-1.666;2022-08-06T01:48:49;5.97;;;2.65;;
33987;SDS011;37428;53.580;-1.666;2022-08-06T01:52:14;6.90;;;2.58;;
33987;SDS011;37428;53.580;-1.666;2022-08-06T01:55:19;9.50;;;2.65;;
33987;SDS011;37428;53.580;-1.666;2022-08-06T01:58:43;11.60;;;2.55;;
33987;SDS011;37428;53.580;-1.666;2022-08-06T02:02:02;7.90;;;3.55;;
33987;SDS011;37428;53.580;-1.666;2022-08-06T02:05:09;6.93;;;2.53;;
33987;SDS011;37428;53.580;-1.666;2022-08-06T02:08:27;7.35;;;2.60;;
33987;SDS011;37428;53.580;-1.666;2022-08-06T02:11:34;6.18;;;2.67;;
33987;SDS011;37428;53.580;-1.666;2022-08-06T02:14:46;7.45;;;2.60;;
33987;SDS011;37428;53.580;-1.666;2022-08-06T02:18:02;6.93;;;1.90;;
33987;SDS011;37428;53.580;-1.666;2022-08-06T02:21:19;4.85;;;2.17;;
33987;SDS011;37428;53.580;-1.666;2022-08-06T02:24:36;7.60;;;2.17;;
33987;SDS011;37428;53.580;-1.666;2022-08-06T02:27:50;6.53;;;2.80;;
33987;SDS011;37428;53.580;-1.666;2022-08-06T02:31:18;7.05;;;2.35;;
33987;SDS011;37428;53.580;-1.666;2022-08-06T02:34:45;8.27;;;2.28;;
33987;SDS011;37428;53.580;-1.666;2022-08-06T02:38:24;7.45;;;2.47;;
33987;SDS011;37428;53.580;-1.666;2022-08-06T02:41:43;6.75;;;2.08;;
33987;SDS011;37428;53.580;-1.666;2022-08-06T02:45:12;7.63;;;2.13;;
33987;SDS011;37428;53.580;-1.666;2022-08-06T02:48:41;9.23;;;2.13;;
33987;SDS011;37428;53.580;-1.666;2022-08-06T02:59:15;7.75;;;2.47;;
33987;SDS011;37428;53.580;-1.666;2022-08-06T03:02:27;4.85;;;1.92;;
33987;SDS011;37428;53.580;-1.666;2022-08-06T03:09:14;6.82;;;1.55;;
33987;SDS011;37428;53.580;-1.666;2022-08-06T03:12:37;2.83;;;1.52;;
33987;SDS011;37428;53.580;-1.666;2022-08-06T03:19:43;5.65;;;1.73;;
33987;SDS011;37428;53.580;-1.666;2022-08-06T03:22:55;5.18;;;1.77;;
33987;SDS011;37428;53.580;-1.666;2022-08-06T03:26:13;3.00;;;1.58;;
33987;SDS011;37428;53.580;-1.666;2022-08-06T03:29:21;7.38;;;1.73;;
33987;SDS011;37428;53.580;-1.666;2022-08-06T03:32:42;7.10;;;2.90;;
33987;SDS011;37428;53.580;-1.666;2022-08-06T03:36:42;7.35;;;1.85;;
33987;SDS011;37428;53.580;-1.666;2022-08-06T03:39:52;5.53;;;1.65;;
33987;SDS011;37428;53.580;-1.666;2022-08-06T03:42:59;7.75;;;1.75;;
33987;SDS011;37428;53.580;-1.666;2022-08-06T03:49:50;6.03;;;2.08;;
33987;SDS011;37428;53.580;-1.666;2022-08-06T03:53:25;6.03;;;2.17;;
33987;SDS011;37428;53.580;-1.666;2022-08-06T03:56:42;5.07;;;1.83;;
33987;SDS011;37428;53.580;-1.666;2022-08-06T03:59:48;5.75;;;1.75;;
33987;SDS011;37428;53.580;-1.666;2022-08-06T04:03:06;6.65;;;2.22;;
33987;SDS011;37428;53.580;-1.666;2022-08-06T04:13:24;7.00;;;2.65;;
33987;SDS011;37428;53.580;-1.666;2022-08-06T04:16:48;9.45;;;3.15;;
33987;SDS011;37428;53.580;-1.666;2022-08-06T04:20:14;6.40;;;2.35;;
33987;SDS011;37428;53.580;-1.666;2022-08-06T04:23:47;4.32;;;2.40;;
33987;SDS011;37428;53.580;-1.666;2022-08-06T04:27:07;7.03;;;3.03;;
33987;SDS011;37428;53.580;-1.666;2022-08-06T04:30:24;7.78;;;2.58;;
33987;SDS011;37428;53.580;-1.666;2022-08-06T04:33:30;7.95;;;2.53;;
33987;SDS011;37428;53.580;-1.666;2022-08-06T04:36:48;4.60;;;2.40;;
33987;SDS011;37428;53.580;-1.666;2022-08-06T04:40:07;8.40;;;2.83;;
33987;SDS011;37428;53.580;-1.666;2022-08-06T04:43:41;7.82;;;2.40;;
33987;SDS011;37428;53.580;-1.666;2022-08-06T04:46:53;4.32;;;2.38;;
33987;SDS011;37428;53.580;-1.666;2022-08-06T04:50:02;5.20;;;2.80;;
33987;SDS011;37428;53.580;-1.666;2022-08-06T04:53:22;4.93;;;2.63;;
33987;SDS011;37428;53.580;-1.666;2022-08-06T04:56:27;9.05;;;2.95;;
33987;SDS011;37428;53.580;-1.666;2022-08-06T05:03:14;10.48;;;3.05;;
33987;SDS011;37428;53.580;-1.666;2022-08-06T05:06:38;5.40;;;2.58;;
33987;SDS011;37428;53.580;-1.666;2022-08-06T05:09:57;6.10;;;2.60;;
33987;SDS011;37428;53.580;-1.666;2022-08-06T05:13:12;6.53;;;2.53;;
33987;SDS011;37428;53.580;-1.666;2022-08-06T05:16:26;7.68;;;2.63;;
33987;SDS011;37428;53.580;-1.666;2022-08-06T05:19:50;6.22;;;3.10;;
33987;SDS011;37428;53.580;-1.666;2022-08-06T05:23:20;6.55;;;3.03;;
33987;SDS011;37428;53.580;-1.666;2022-08-06T05:26:35;5.78;;;2.80;;
33987;SDS011;37428;53.580;-1.666;2022-08-06T05:31:27;11.98;;;2.90;;
33987;SDS011;37428;53.580;-1.666;2022-08-06T05:33:26;11.52;;;3.55;;
33987;SDS011;37428;53.580;-1.666;2022-08-06T05:36:48;5.50;;;2.95;;
33987;SDS011;37428;53.580;-1.666;2022-08-06T05:40:02;10.25;;;4.03;;
33987;SDS011;37428;53.580;-1.666;2022-08-06T05:43:36;9.45;;;3.30;;
33987;SDS011;37428;53.580;-1.666;2022-08-06T05:47:09;7.85;;;3.88;;
33987;SDS011;37428;53.580;-1.666;2022-08-06T05:50:39;7.82;;;2.63;;
33987;SDS011;37428;53.580;-1.666;2022-08-06T05:54:11;7.40;;;3.42;;
33987;SDS011;37428;53.580;-1.666;2022-08-06T05:57:54;9.27;;;3.05;;
33987;SDS011;37428;53.580;-1.666;2022-08-06T06:01:21;7.38;;;2.75;;
33987;SDS011;37428;53.580;-1.666;2022-08-06T06:04:45;8.35;;;2.80;;
33987;SDS011;37428;53.580;-1.666;2022-08-06T06:08:10;7.72;;;3.10;;
33987;SDS011;37428;53.580;-1.666;2022-08-06T06:11:16;5.20;;;3.13;;
33987;SDS011;37428;53.580;-1.666;2022-08-06T06:18:30;9.80;;;3.10;;
33987;SDS011;37428;53.580;-1.666;2022-08-06T06:25:59;6.80;;;3.08;;
33987;SDS011;37428;53.580;-1.666;2022-08-06T06:36:34;10.85;;;2.58;;
33987;SDS011;37428;53.580;-1.666;2022-08-06T06:43:51;6.60;;;3.08;;
33987;SDS011;37428;53.580;-1.666;2022-08-06T06:47:25;7.43;;;2.88;;
33987;SDS011;37428;53.580;-1.666;2022-08-06T06:50:57;7.95;;;3.20;;
33987;SDS011;37428;53.580;-1.666;2022-08-06T06:54:20;5.80;;;2.80;;
33987;SDS011;37428;53.580;-1.666;2022-08-06T06:57:41;9.15;;;3.35;;
33987;SDS011;37428;53.580;-1.666;2022-08-06T07:04:41;6.85;;;2.80;;
33987;SDS011;37428;53.580;-1.666;2022-08-06T07:07:56;9.10;;;2.55;;
33987;SDS011;37428;53.580;-1.666;2022-08-06T07:11:06;11.90;;;2.78;;
33987;SDS011;37428;53.580;-1.666;2022-08-06T07:14:16;4.65;;;2.28;;
33987;SDS011;37428;53.580;-1.666;2022-08-06T07:17:42;4.75;;;2.30;;
33987;SDS011;37428;53.580;-1.666;2022-08-06T07:20:58;4.78;;;2.20;;
33987;SDS011;37428;53.580;-1.666;2022-08-06T07:24:09;8.45;;;2.20;;
33987;SDS011;37428;53.580;-1.666;2022-08-06T07:31:21;5.57;;;2.00;;
33987;SDS011;37428;53.580;-1.666;2022-08-06T07:34:55;7.95;;;2.33;;
33987;SDS011;37428;53.580;-1.666;2022-08-06T07:38:05;9.55;;;2.60;;
33987;SDS011;37428;53.580;-1.666;2022-08-06T07:41:40;8.15;;;2.38;;
33987;SDS011;37428;53.580;-1.666;2022-08-06T07:44:55;5.93;;;2.25;;
33987;SDS011;37428;53.580;-1.666;2022-08-06T07:48:04;5.25;;;2.30;;
33987;SDS011;37428;53.580;-1.666;2022-08-06T07:54:56;4.00;;;1.70;;
33987;SDS011;37428;53.580;-1.666;2022-08-06T07:58:26;7.72;;;2.00;;
33987;SDS011;37428;53.580;-1.666;2022-08-06T08:05:08;4.70;;;1.60;;
33987;SDS011;37428;53.580;-1.666;2022-08-06T08:08:44;7.07;;;1.85;;
33987;SDS011;37428;53.580;-1.666;2022-08-06T08:12:04;4.18;;;1.70;;
33987;SDS011;37428;53.580;-1.666;2022-08-06T08:15:16;6.78;;;2.17;;
33987;SDS011;37428;53.580;-1.666;2022-08-06T08:18:26;7.13;;;1.88;;
33987;SDS011;37428;53.580;-1.666;2022-08-06T08:21:37;4.50;;;1.70;;
33987;SDS011;37428;53.580;-1.666;2022-08-06T08:24:45;7.50;;;2.00;;
33987;SDS011;37428;53.580;-1.666;2022-08-06T08:27:55;7.10;;;2.28;;
33987;SDS011;37428;53.580;-1.666;2022-08-06T08:31:13;4.13;;;1.90;;
33987;SDS011;37428;53.580;-1.666;2022-08-06T08:34:45;6.30;;;2.28;;
33987;SDS011;37428;53.580;-1.666;2022-08-06T08:37:49;5.70;;;2.30;;
33987;SDS011;37428;53.580;-1.666;2022-08-06T08:41:08;5.13;;;2.42;;
33987;SDS011;37428;53.580;-1.666;2022-08-06T08:44:26;5.85;;;2.22;;
33987;SDS011;37428;53.580;-1.666;2022-08-06T08:55:00;5.85;;;2.38;;
33987;SDS011;37428;53.580;-1.666;2022-08-06T09:01:52;9.68;;;2.80;;
33987;SDS011;37428;53.580;-1.666;2022-08-06T09:05:13;8.63;;;2.60;;
33987;SDS011;37428;53.580;-1.666;2022-08-06T09:08:29;8.35;;;2.70;;
33987;SDS011;37428;53.580;-1.666;2022-08-06T09:12:02;10.15;;;2.55;;
33987;SDS011;37428;53.580;-1.666;2022-08-06T09:15:12;9.13;;;2.58;;
33987;SDS011;37428;53.580;-1.666;2022-08-06T09:18:51;3.85;;;2.20;;
33987;SDS011;37428;53.580;-1.666;2022-08-06T09:21:57;6.25;;;2.70;;
33987;SDS011;37428;53.580;-1.666;2022-08-06T09:28:55;5.75;;;3.05;;
33987;SDS011;37428;53.580;-1.666;2022-08-06T09:32:48;10.95;;;2.45;;
33987;SDS011;37428;53.580;-1.666;2022-08-06T09:35:56;6.32;;;3.10;;
33987;SDS011;37428;53.580;-1.666;2022-08-06T09:39:07;4.45;;;3.17;;
33987;SDS011;37428;53.580;-1.666;2022-08-06T09:42:43;5.47;;;2.85;;
33987;SDS011;37428;53.580;-1.666;2022-08-06T09:45:51;9.18;;;3.05;;
33987;SDS011;37428;53.580;-1.666;2022-08-06T09:48:59;5.53;;;3.35;;
33987;SDS011;37428;53.580;-1.666;2022-08-06T09:52:24;6.38;;;2.92;;
33987;SDS011;37428;53.580;-1.666;2022-08-06T09:55:44;6.63;;;3.80;;
33987;SDS011;37428;53.580;-1.666;2022-08-06T09:59:14;6.80;;;3.60;;
33987;SDS011;37428;53.580;-1.666;2022-08-06T10:02:50;7.15;;;3.35;;
33987;SDS011;37428;53.580;-1.666;2022-08-06T10:06:34;5.47;;;3.03;;
33987;SDS011;37428;53.580;-1.666;2022-08-06T10:09:27;4.00;;;2.75;;
33987;SDS011;37428;53.580;-1.666;2022-08-06T10:13:09;9.98;;;3.03;;
33987;SDS011;37428;53.580;-1.666;2022-08-06T10:16:33;6.38;;;2.55;;
33987;SDS011;37428;53.580;-1.666;2022-08-06T10:23:24;7.88;;;2.97;;
33987;SDS011;37428;53.580;-1.666;2022-08-06T10:26:43;10.77;;;2.97;;
33987;SDS011;37428;53.580;-1.666;2022-08-06T10:30:01;6.95;;;3.25;;
33987;SDS011;37428;53.580;-1.666;2022-08-06T10:33:30;4.45;;;2.88;;
33987;SDS011;37428;53.580;-1.666;2022-08-06T10:36:43;5.22;;;2.60;;
33987;SDS011;37428;53.580;-1.666;2022-08-06T10:43:38;4.60;;;2.80;;
33987;SDS011;37428;53.580;-1.666;2022-08-06T10:46:42;4.40;;;2.72;;
33987;SDS011;37428;53.580;-1.666;2022-08-06T10:50:07;6.65;;;3.00;;
33987;SDS011;37428;53.580;-1.666;2022-08-06T10:53:13;6.47;;;3.25;;
33987;SDS011;37428;53.580;-1.666;2022-08-06T10:56:19;7.07;;;3.72;;
33987;SDS011;37428;53.580;-1.666;2022-08-06T10:59:40;6.25;;;3.20;;
33987;SDS011;37428;53.580;-1.666;2022-08-06T11:02:56;10.88;;;3.05;;
33987;SDS011;37428;53.580;-1.666;2022-08-06T11:06:34;3.55;;;2.72;;
33987;SDS011;37428;53.580;-1.666;2022-08-06T11:10:00;4.75;;;3.25;;
33987;SDS011;37428;53.580;-1.666;2022-08-06T11:13:35;4.25;;;2.83;;
33987;SDS011;37428;53.580;-1.666;2022-08-06T11:16:55;3.15;;;2.42;;
33987;SDS011;37428;53.580;-1.666;2022-08-06T11:20:01;7.63;;;2.75;;
33987;SDS011;37428;53.580;-1.666;2022-08-06T11:23:27;5.72;;;2.85;;
33987;SDS011;37428;53.580;-1.666;2022-08-06T11:30:38;6.03;;;3.55;;
33987;SDS011;37428;53.580;-1.666;2022-08-06T11:34:13;6.60;;;3.53;;
33987;SDS011;37428;53.580;-1.666;2022-08-06T11:40:53;5.40;;;3.33;;
33987;SDS011;37428;53.580;-1.666;2022-08-06T11:44:08;6.38;;;2.90;;
33987;SDS011;37428;53.580;-1.666;2022-08-06T11:47:16;10.18;;;3.90;;
33987;SDS011;37428;53.580;-1.666;2022-08-06T11:50:22;6.97;;;3.20;;
33987;SDS011;37428;53.580;-1.666;2022-08-06T11:53:36;16.13;;;3.28;;
33987;SDS011;37428;53.580;-1.666;2022-08-06T12:00:39;11.35;;;3.53;;
33987;SDS011;37428;53.580;-1.666;2022-08-06T12:04:01;7.38;;;3.33;;
33987;SDS011;37428;53.580;-1.666;2022-08-06T12:07:17;6.43;;;3.53;;
33987;SDS011;37428;53.580;-1.666;2022-08-06T12:10:27;7.35;;;4.20;;
33987;SDS011;37428;53.580;-1.666;2022-08-06T12:13:41;5.95;;;3.47;;
33987;SDS011;37428;53.580;-1.666;2022-08-06T12:16:47;6.45;;;4.00;;
33987;SDS011;37428;53.580;-1.666;2022-08-06T12:19:55;6.50;;;4.38;;
33987;SDS011;37428;53.580;-1.666;2022-08-06T12:23:14;10.90;;;4.68;;
33987;SDS011;37428;53.580;-1.666;2022-08-06T12:26:17;10.30;;;4.60;;
33987;SDS011;37428;53.580;-1.666;2022-08-06T12:29:34;7.32;;;4.05;;
33987;SDS011;37428;53.580;-1.666;2022-08-06T12:32:40;6.50;;;3.90;;
33987;SDS011;37428;53.580;-1.666;2022-08-06T12:36:00;7.28;;;3.90;;
33987;SDS011;37428;53.580;-1.666;2022-08-06T12:39:06;6.78;;;4.32;;
33987;SDS011;37428;53.580;-1.666;2022-08-06T12:42:21;5.30;;;3.47;;
33987;SDS011;37428;53.580;-1.666;2022-08-06T12:45:24;5.55;;;3.45;;
33987;SDS011;37428;53.580;-1.666;2022-08-06T12:48:31;5.03;;;3.17;;
33987;SDS011;37428;53.580;-1.666;2022-08-06T12:51:50;4.93;;;3.20;;
33987;SDS011;37428;53.580;-1.666;2022-08-06T12:57:59;6.78;;;4.00;;
33987;SDS011;37428;53.580;-1.666;2022-08-06T13:01:18;6.43;;;3.95;;
33987;SDS011;37428;53.580;-1.666;2022-08-06T13:04:25;5.82;;;4.30;;
33987;SDS011;37428;53.580;-1.666;2022-08-06T13:07:28;10.23;;;4.68;;
33987;SDS011;37428;53.580;-1.666;2022-08-06T13:10:30;5.25;;;4.10;;
33987;SDS011;37428;53.580;-1.666;2022-08-06T13:13:38;5.40;;;4.32;;
33987;SDS011;37428;53.580;-1.666;2022-08-06T13:16:44;7.93;;;4.10;;
33987;SDS011;37428;53.580;-1.666;2022-08-06T13:20:11;9.55;;;3.97;;
33987;SDS011;37428;53.580;-1.666;2022-08-06T13:23:14;5.75;;;4.07;;
33987;SDS011;37428;53.580;-1.666;2022-08-06T13:26:18;5.97;;;3.72;;
33987;SDS011;37428;53.580;-1.666;2022-08-06T13:29:27;4.55;;;3.47;;
33987;SDS011;37428;53.580;-1.666;2022-08-06T13:35:37;4.18;;;3.28;;
33987;SDS011;37428;53.580;-1.666;2022-08-06T13:38:49;6.97;;;4.35;;
33987;SDS011;37428;53.580;-1.666;2022-08-06T13:42:02;5.68;;;3.90;;
33987;SDS011;37428;53.580;-1.666;2022-08-06T13:45:19;5.85;;;4.10;;
33987;SDS011;37428;53.580;-1.666;2022-08-06T13:48:28;9.48;;;4.13;;
33987;SDS011;37428;53.580;-1.666;2022-08-06T13:51:31;7.43;;;4.00;;
33987;SDS011;37428;53.580;-1.666;2022-08-06T13:54:38;3.83;;;3.20;;
33987;SDS011;37428;53.580;-1.666;2022-08-06T13:57:50;8.10;;;4.18;;
33987;SDS011;37428;53.580;-1.666;2022-08-06T14:01:06;4.43;;;3.03;;
33987;SDS011;37428;53.580;-1.666;2022-08-06T14:04:09;5.82;;;3.53;;
33987;SDS011;37428;53.580;-1.666;2022-08-06T14:07:14;4.80;;;3.42;;
33987;SDS011;37428;53.580;-1.666;2022-08-06T14:10:23;9.32;;;3.60;;
33987;SDS011;37428;53.580;-1.666;2022-08-06T14:13:25;6.07;;;3.08;;
33987;SDS011;37428;53.580;-1.666;2022-08-06T14:16:29;6.07;;;2.90;;
33987;SDS011;37428;53.580;-1.666;2022-08-06T14:19:31;4.90;;;3.25;;
33987;SDS011;37428;53.580;-1.666;2022-08-06T14:22:35;3.58;;;3.25;;
33987;SDS011;37428;53.580;-1.666;2022-08-06T14:25:37;6.40;;;2.80;;
33987;SDS011;37428;53.580;-1.666;2022-08-06T14:28:46;5.25;;;2.45;;
33987;SDS011;37428;53.580;-1.666;2022-08-06T14:32:10;4.35;;;2.45;;
33987;SDS011;37428;53.580;-1.666;2022-08-06T14:35:32;6.95;;;3.33;;
33987;SDS011;37428;53.580;-1.666;2022-08-06T14:38:45;3.92;;;2.13;;
33987;SDS011;37428;53.580;-1.666;2022-08-06T14:41:47;5.00;;;3.28;;
33987;SDS011;37428;53.580;-1.666;2022-08-06T14:45:15;4.13;;;2.20;;
33987;SDS011;37428;53.580;-1.666;2022-08-06T14:48:22;3.03;;;2.33;;
33987;SDS011;37428;53.580;-1.666;2022-08-06T14:51:51;3.03;;;1.95;;
33987;SDS011;37428;53.580;-1.666;2022-08-06T14:54:59;3.35;;;2.42;;
33987;SDS011;37428;53.580;-1.666;2022-08-06T14:58:03;3.75;;;2.40;;
33987;SDS011;37428;53.580;-1.666;2022-08-06T15:01:12;5.05;;;2.22;;
33987;SDS011;37428;53.580;-1.666;2022-08-06T15:07:55;3.53;;;2.53;;
33987;SDS011;37428;53.580;-1.666;2022-08-06T15:10:56;4.88;;;1.95;;
33987;SDS011;37428;53.580;-1.666;2022-08-06T15:13:59;5.03;;;2.22;;
33987;SDS011;37428;53.580;-1.666;2022-08-06T15:17:03;3.88;;;2.65;;
33987;SDS011;37428;53.580;-1.666;2022-08-06T15:20:11;4.35;;;1.98;;
33987;SDS011;37428;53.580;-1.666;2022-08-06T15:23:18;3.95;;;1.98;;
33987;SDS011;37428;53.580;-1.666;2022-08-06T15:29:41;3.40;;;2.30;;
33987;SDS011;37428;53.580;-1.666;2022-08-06T15:32:49;4.95;;;2.08;;
33987;SDS011;37428;53.580;-1.666;2022-08-06T15:36:23;3.25;;;2.10;;
33987;SDS011;37428;53.580;-1.666;2022-08-06T15:39:40;4.07;;;2.15;;
33987;SDS011;37428;53.580;-1.666;2022-08-06T15:42:53;6.85;;;2.08;;
33987;SDS011;37428;53.580;-1.666;2022-08-06T15:46:10;4.65;;;2.20;;
33987;SDS011;37428;53.580;-1.666;2022-08-06T15:49:22;3.60;;;1.90;;
33987;SDS011;37428;53.580;-1.666;2022-08-06T15:52:35;3.97;;;2.13;;
33987;SDS011;37428;53.580;-1.666;2022-08-06T15:55:39;3.85;;;2.10;;
33987;SDS011;37428;53.580;-1.666;2022-08-06T15:58:47;2.70;;;1.65;;
33987;SDS011;37428;53.580;-1.666;2022-08-06T16:02:01;5.15;;;1.92;;
33987;SDS011;37428;53.580;-1.666;2022-08-06T16:05:23;3.53;;;2.00;;
33987;SDS011;37428;53.580;-1.666;2022-08-06T16:08:49;3.80;;;2.03;;
33987;SDS011;37428;53.580;-1.666;2022-08-06T16:11:54;3.97;;;1.90;;
33987;SDS011;37428;53.580;-1.666;2022-08-06T16:18:27;2.45;;;1.60;;
33987;SDS011;37428;53.580;-1.666;2022-08-06T16:22:00;3.40;;;1.60;;
33987;SDS011;37428;53.580;-1.666;2022-08-06T16:25:41;4.95;;;1.67;;
33987;SDS011;37428;53.580;-1.666;2022-08-06T16:29:21;3.70;;;1.70;;
33987;SDS011;37428;53.580;-1.666;2022-08-06T16:36:08;5.32;;;1.65;;
33987;SDS011;37428;53.580;-1.666;2022-08-06T16:39:13;2.75;;;1.55;;
33987;SDS011;37428;53.580;-1.666;2022-08-06T16:42:15;3.80;;;1.30;;
33987;SDS011;37428;53.580;-1.666;2022-08-06T16:45:17;2.75;;;1.35;;
33987;SDS011;37428;53.580;-1.666;2022-08-06T16:48:24;3.17;;;1.33;;
33987;SDS011;37428;53.580;-1.666;2022-08-06T16:51:56;3.00;;;1.40;;
33987;SDS011;37428;53.580;-1.666;2022-08-06T16:55:15;2.15;;;1.30;;
33987;SDS011;37428;53.580;-1.666;2022-08-06T17:01:50;3.28;;;1.25;;
33987;SDS011;37428;53.580;-1.666;2022-08-06T17:05:11;3.50;;;1.45;;
33987;SDS011;37428;53.580;-1.666;2022-08-06T17:08:16;3.80;;;1.35;;
33987;SDS011;37428;53.580;-1.666;2022-08-06T17:11:18;3.60;;;1.13;;
33987;SDS011;37428;53.580;-1.666;2022-08-06T17:14:26;3.58;;;1.35;;
33987;SDS011;37428;53.580;-1.666;2022-08-06T17:17:30;1.38;;;0.98;;
33987;SDS011;37428;53.580;-1.666;2022-08-06T17:20:40;4.55;;;1.20;;
33987;SDS011;37428;53.580;-1.666;2022-08-06T17:23:48;4.40;;;1.23;;
33987;SDS011;37428;53.580;-1.666;2022-08-06T17:26:51;4.30;;;1.17;;
33987;SDS011;37428;53.580;-1.666;2022-08-06T17:29:56;4.38;;;1.33;;
33987;SDS011;37428;53.580;-1.666;2022-08-06T17:32:58;3.08;;;1.20;;
33987;SDS011;37428;53.580;-1.666;2022-08-06T17:36:11;1.60;;;0.70;;
33987;SDS011;37428;53.580;-1.666;2022-08-06T17:39:45;1.60;;;1.08;;
33987;SDS011;37428;53.580;-1.666;2022-08-06T17:42:43;2.15;;;0.93;;
33987;SDS011;37428;53.580;-1.666;2022-08-06T17:46:14;1.85;;;0.80;;
33987;SDS011;37428;53.580;-1.666;2022-08-06T17:49:17;4.40;;;1.60;;
33987;SDS011;37428;53.580;-1.666;2022-08-06T17:53:00;3.05;;;1.10;;
33987;SDS011;37428;53.580;-1.666;2022-08-06T17:56:06;2.75;;;0.80;;
33987;SDS011;37428;53.580;-1.666;2022-08-06T17:59:47;4.15;;;1.17;;
33987;SDS011;37428;53.580;-1.666;2022-08-06T18:02:52;3.95;;;0.80;;
33987;SDS011;37428;53.580;-1.666;2022-08-06T18:06:00;2.20;;;0.65;;
33987;SDS011;37428;53.580;-1.666;2022-08-06T18:09:06;2.13;;;0.82;;
33987;SDS011;37428;53.580;-1.666;2022-08-06T18:12:25;3.03;;;0.60;;
33987;SDS011;37428;53.580;-1.666;2022-08-06T18:15:43;4.32;;;0.82;;
33987;SDS011;37428;53.580;-1.666;2022-08-06T18:18:46;3.10;;;0.60;;
33987;SDS011;37428;53.580;-1.666;2022-08-06T18:22:14;3.88;;;0.43;;
33987;SDS011;37428;53.580;-1.666;2022-08-06T18:25:21;0.88;;;0.30;;
33987;SDS011;37428;53.580;-1.666;2022-08-06T18:28:46;2.72;;;0.38;;
33987;SDS011;37428;53.580;-1.666;2022-08-06T18:31:50;2.00;;;0.50;;
33987;SDS011;37428;53.580;-1.666;2022-08-06T18:35:08;1.75;;;1.00;;
33987;SDS011;37428;53.580;-1.666;2022-08-06T18:38:13;4.30;;;1.92;;
33987;SDS011;37428;53.580;-1.666;2022-08-06T18:44:36;16.55;;;8.93;;
33987;SDS011;37428;53.580;-1.666;2022-08-06T18:48:05;1.33;;;0.60;;
33987;SDS011;37428;53.580;-1.666;2022-08-06T18:51:15;3.20;;;0.55;;
33987;SDS011;37428;53.580;-1.666;2022-08-06T18:54:19;1.30;;;0.43;;
33987;SDS011;37428;53.580;-1.666;2022-08-06T19:00:42;2.47;;;0.43;;
33987;SDS011;37428;53.580;-1.666;2022-08-06T19:03:45;2.03;;;0.70;;
33987;SDS011;37428;53.580;-1.666;2022-08-06T19:06:49;0.45;;;0.30;;
33987;SDS011;37428;53.580;-1.666;2022-08-06T19:09:57;0.82;;;0.50;;
33987;SDS011;37428;53.580;-1.666;2022-08-06T19:13:01;1.92;;;0.38;;
33987;SDS011;37428;53.580;-1.666;2022-08-06T19:16:23;0.80;;;0.60;;
33987;SDS011;37428;53.580;-1.666;2022-08-06T19:19:40;2.50;;;0.40;;
33987;SDS011;37428;53.580;-1.666;2022-08-06T19:23:00;0.75;;;0.40;;
33987;SDS011;37428;53.580;-1.666;2022-08-06T19:26:09;0.85;;;0.30;;
33987;SDS011;37428;53.580;-1.666;2022-08-06T19:29:12;0.50;;;0.50;;
33987;SDS011;37428;53.580;-1.666;2022-08-06T19:32:17;1.42;;;0.77;;
33987;SDS011;37428;53.580;-1.666;2022-08-06T19:35:37;1.58;;;0.50;;
33987;SDS011;37428;53.580;-1.666;2022-08-06T19:38:41;3.30;;;0.60;;
33987;SDS011;37428;53.580;-1.666;2022-08-06T19:41:43;1.00;;;0.60;;
33987;SDS011;37428;53.580;-1.666;2022-08-06T19:45:00;2.33;;;0.52;;
33987;SDS011;37428;53.580;-1.666;2022-08-06T19:51:44;1.25;;;0.70;;
33987;SDS011;37428;53.580;-1.666;2022-08-06T19:55:01;1.38;;;0.70;;
33987;SDS011;37428;53.580;-1.666;2022-08-06T19:58:18;1.50;;;0.70;;
33987;SDS011;37428;53.580;-1.666;2022-08-06T20:01:41;1.48;;;0.60;;
33987;SDS011;37428;53.580;-1.666;2022-08-06T20:05:00;0.73;;;0.47;;
33987;SDS011;37428;53.580;-1.666;2022-08-06T20:08:04;1.40;;;0.65;;
33987;SDS011;37428;53.580;-1.666;2022-08-06T20:11:18;2.53;;;0.50;;
33987;SDS011;37428;53.580;-1.666;2022-08-06T20:14:37;1.65;;;0.52;;
33987;SDS011;37428;53.580;-1.666;2022-08-06T20:17:50;1.00;;;0.80;;
33987;SDS011;37428;53.580;-1.666;2022-08-06T20:21:15;2.05;;;1.08;;
33987;SDS011;37428;53.580;-1.666;2022-08-06T20:24:19;1.20;;;1.00;;
33987;SDS011;37428;53.580;-1.666;2022-08-06T20:27:30;1.00;;;0.63;;
33987;SDS011;37428;53.580;-1.666;2022-08-06T20:30:38;2.53;;;0.82;;
33987;SDS011;37428;53.580;-1.666;2022-08-06T20:37:03;1.90;;;1.20;;
33987;SDS011;37428;53.580;-1.666;2022-08-06T20:43:33;1.70;;;1.38;;
33987;SDS011;37428;53.580;-1.666;2022-08-06T20:46:38;1.23;;;0.93;;
33987;SDS011;37428;53.580;-1.666;2022-08-06T20:50:04;2.17;;;1.17;;
33987;SDS011;37428;53.580;-1.666;2022-08-06T20:53:09;0.98;;;0.65;;
33987;SDS011;37428;53.580;-1.666;2022-08-06T20:56:11;1.85;;;0.65;;
33987;SDS011;37428;53.580;-1.666;2022-08-06T20:59:27;0.93;;;0.68;;
33987;SDS011;37428;53.580;-1.666;2022-08-06T21:03:06;1.40;;;0.80;;
33987;SDS011;37428;53.580;-1.666;2022-08-06T21:06:26;0.60;;;0.60;;
33987;SDS011;37428;53.580;-1.666;2022-08-06T21:09:58;1.90;;;1.00;;
33987;SDS011;37428;53.580;-1.666;2022-08-06T21:13:11;0.98;;;0.68;;
33987;SDS011;37428;53.580;-1.666;2022-08-06T21:16:14;2.63;;;1.25;;
33987;SDS011;37428;53.580;-1.666;2022-08-06T21:19:17;2.03;;;0.80;;
33987;SDS011;37428;53.580;-1.666;2022-08-06T21:25:23;1.38;;;0.80;;
33987;SDS011;37428;53.580;-1.666;2022-08-06T21:31:28;2.33;;;1.00;;
33987;SDS011;37428;53.580;-1.666;2022-08-06T21:34:30;0.93;;;0.73;;
33987;SDS011;37428;53.580;-1.666;2022-08-06T21:37:37;2.67;;;0.90;;
33987;SDS011;37428;53.580;-1.666;2022-08-06T21:40:55;3.00;;;0.80;;
33987;SDS011;37428;53.580;-1.666;2022-08-06T21:44:18;3.03;;;1.00;;
33987;SDS011;37428;53.580;-1.666;2022-08-06T21:47:20;1.02;;;0.93;;
33987;SDS011;37428;53.580;-1.666;2022-08-06T21:50:22;1.50;;;1.10;;
33987;SDS011;37428;53.580;-1.666;2022-08-06T21:53:27;2.80;;;0.90;;
33987;SDS011;37428;53.580;-1.666;2022-08-06T21:56:30;1.20;;;1.00;;
33987;SDS011;37428;53.580;-1.666;2022-08-06T21:59:32;1.83;;;1.02;;
33987;SDS011;37428;53.580;-1.666;2022-08-06T22:03:06;3.30;;;1.40;;
33987;SDS011;37428;53.580;-1.666;2022-08-06T22:06:00;2.30;;;0.93;;
33987;SDS011;37428;53.580;-1.666;2022-08-06T22:12:57;1.52;;;1.30;;
33987;SDS011;37428;53.580;-1.666;2022-08-06T22:16:06;1.77;;;1.10;;